| time (UTC) | temp C | wind direction | speed KPH | gust KPH | rain 1hr cm | rain 24hr cm | rain mn cm | humidity % | barometer mb |
| 20260508090003 | 15 | 147 | 11.3 | 17.7 | 0.00 | 0.00 | 0.00 | 68 | 1013.3 |
| 20260508085617 | 15 | 146 | 11.3 | 17.7 | 0.00 | 0.00 | 0.00 | 69 | 1013.2 |
| 20260508084503 | 15 | 142 | 14.5 | 22.5 | 0.00 | 0.00 | 0.00 | 72 | 1013.1 |
| 20260508083603 | 15 | 133 | 12.9 | 24.1 | 0.00 | 0.00 | 0.00 | 71 | 1013.0 |
| 20260508082703 | 15 | 151 | 9.7 | 20.9 | 0.00 | 0.00 | 0.00 | 71 | 1013.1 |
| 20260508081803 | 15 | 164 | 8.0 | 12.9 | 0.00 | 0.00 | 0.00 | 73 | 1012.9 |
| 20260508080903 | 15 | 176 | 6.4 | 14.5 | 0.00 | 0.00 | 0.00 | 72 | 1012.8 |
| 20260508080003 | 14 | 161 | 6.4 | 12.9 | 0.00 | 0.00 | 0.00 | 74 | 1013.1 |
| 20260508075403 | 14 | 172 | 8.0 | 12.9 | 0.00 | 0.00 | 0.00 | 75 | 1012.8 |
| 20260508074503 | 14 | 173 | 6.4 | 12.9 | 0.00 | 0.00 | 0.00 | 73 | 1013.2 |
| 20260508073603 | 14 | 167 | 4.8 | 12.9 | 0.00 | 0.00 | 0.00 | 75 | 1012.9 |
| 20260508072703 | 13 | 178 | 6.4 | 12.9 | 0.00 | 0.00 | 0.00 | 77 | 1013.0 |
| 20260508071803 | 13 | 164 | 4.8 | 12.9 | 0.00 | 0.00 | 0.00 | 78 | 1012.8 |
| 20260508070903 | 13 | 166 | 4.8 | 11.3 | 0.00 | 0.00 | 0.00 | 80 | 1012.8 |
| 20260508070003 | 13 | 159 | 3.2 | 9.7 | 0.00 | 0.00 | 0.00 | 81 | 1013.0 |
| 20260508065403 | 13 | 160 | 3.2 | 9.7 | 0.00 | 0.00 | 0.00 | 81 | 1012.9 |
| 20260508064503 | 13 | 172 | 3.2 | 6.4 | 0.00 | 0.00 | 0.00 | 82 | 1012.8 |
| 20260508063603 | 12 | 199 | 4.8 | 11.3 | 0.00 | 0.00 | 0.00 | 83 | 1012.7 |
| 20260508062703 | 12 | 201 | 6.4 | 11.3 | 0.00 | 0.00 | 0.00 | 83 | 1012.8 |
| 20260508061803 | 12 | 205 | 9.7 | 14.5 | 0.00 | 0.00 | 0.00 | 84 | 1012.7 |
| 20260508060903 | 12 | 209 | 8.0 | 14.5 | 0.00 | 0.00 | 0.00 | 83 | 1012.4 |
| 20260508060003 | 12 | 203 | 8.0 | 11.3 | 0.00 | 0.00 | 0.00 | 83 | 1012.3 |
| 20260508055403 | 12 | 197 | 6.4 | 11.3 | 0.00 | 0.00 | 0.00 | 83 | 1012.3 |
| 20260508054503 | 12 | 158 | 4.8 | 6.4 | 0.00 | 0.00 | 0.00 | 82 | 1012.0 |
| 20260508053603 | 12 | 114 | 1.6 | 4.8 | 0.00 | 0.00 | 0.00 | 82 | 1011.7 |
| 20260508052918 | 12 | 108 | 0.0 | 3.2 | 0.00 | 0.00 | 0.00 | 82 | 1011.5 |
| 20260508051803 | 12 | 108 | 1.6 | 3.2 | 0.00 | 0.00 | 0.00 | 82 | 1010.9 |
| 20260508050903 | 12 | 108 | 1.6 | 4.8 | 0.00 | 0.00 | 0.00 | 83 | 1011.6 |
| 20260508050003 | 12 | 108 | 1.6 | 4.8 | 0.00 | 0.00 | 0.00 | 82 | 1011.2 |
| 20260508045617 | 12 | 108 | 1.6 | 3.2 | 0.00 | 0.00 | 0.00 | 82 | 1011.5 |
| 20260508044503 | 12 | 108 | 0.0 | 3.2 | 0.00 | 0.00 | 0.00 | 84 | 1011.6 |
| 20260508043603 | 12 | 109 | 1.6 | 3.2 | 0.00 | 0.00 | 0.00 | 84 | 1011.8 |
| 20260508042703 | 12 | 109 | 3.2 | 4.8 | 0.00 | 0.00 | 0.00 | 85 | 1011.9 |
| 20260508041803 | 12 | 114 | 3.2 | 4.8 | 0.00 | 0.00 | 0.00 | 85 | 1012.0 |
| 20260508040903 | 12 | 114 | 3.2 | 4.8 | 0.00 | 0.00 | 0.00 | 85 | 1012.1 |
| 20260508040003 | 12 | 124 | 3.2 | 4.8 | 0.00 | 0.00 | 0.00 | 85 | 1012.2 |
| 20260508035403 | 12 | 125 | 3.2 | 3.2 | 0.00 | 0.00 | 0.00 | 85 | 1012.0 |
| 20260508034503 | 12 | 108 | 1.6 | 3.2 | 0.00 | 0.00 | 0.00 | 83 | 1012.0 |
| 20260508033603 | 12 | 123 | 1.6 | 4.8 | 0.00 | 0.00 | 0.00 | 83 | 1011.9 |
| 20260508032703 | 12 | 134 | 3.2 | 6.4 | 0.00 | 0.00 | 0.00 | 83 | 1011.9 |
| 20260508032016 | 12 | 135 | 3.2 | 4.8 | 0.00 | 0.00 | 0.00 | 83 | 1012.1 |
| 20260508030903 | 12 | 130 | 3.2 | 6.4 | 0.00 | 0.00 | 0.00 | 83 | 1012.0 |
| 20260508030003 | 12 | 134 | 4.8 | 9.7 | 0.00 | 0.00 | 0.00 | 83 | 1012.2 |
| 20260508025403 | 12 | 140 | 6.4 | 9.7 | 0.00 | 0.00 | 0.00 | 83 | 1012.3 |
| 20260508024503 | 12 | 140 | 6.4 | 11.3 | 0.00 | 0.00 | 0.00 | 83 | 1012.2 |
| 20260508023817 | 12 | 133 | 6.4 | 9.7 | 0.00 | 0.00 | 0.00 | 84 | 1012.0 |
| 20260508022703 | 12 | 137 | 4.8 | 6.4 | 0.00 | 0.00 | 0.00 | 84 | 1011.9 |
| 20260508021803 | 12 | 120 | 3.2 | 6.4 | 0.00 | 0.00 | 0.00 | 82 | 1011.6 |
| 20260508020903 | 12 | 145 | 3.2 | 9.7 | 0.00 | 0.00 | 0.00 | 83 | 1011.6 |
| 20260508020217 | 12 | 159 | 3.2 | 6.4 | 0.00 | 0.00 | 0.00 | 82 | 1011.5 |
| 20260508015403 | 13 | 168 | 3.2 | 6.4 | 0.00 | 0.00 | 0.00 | 80 | 1011.6 |
| 20260508014503 | 12 | 155 | 3.2 | 6.4 | 0.00 | 0.00 | 0.00 | 80 | 1011.7 |
| 20260508013603 | 12 | 158 | 6.4 | 12.9 | 0.00 | 0.00 | 0.00 | 80 | 1011.9 |
| 20260508012703 | 12 | 153 | 6.4 | 11.3 | 0.00 | 0.00 | 0.00 | 81 | 1012.0 |
| 20260508011803 | 12 | 154 | 4.8 | 9.7 | 0.00 | 0.00 | 0.00 | 79 | 1011.9 |
| 20260508011117 | 13 | 147 | 4.8 | 6.4 | 0.00 | 0.00 | 0.00 | 79 | 1011.8 |
| 20260508010218 | 13 | 141 | 4.8 | 4.8 | 0.00 | 0.00 | 0.00 | 78 | 1011.7 |
| 20260508005403 | 13 | 149 | 3.2 | 4.8 | 0.00 | 0.00 | 0.00 | 77 | 1011.8 |
| 20260508004503 | 13 | 143 | 3.2 | 4.8 | 0.00 | 0.00 | 0.00 | 76 | 1011.9 |
| 20260508003603 | 13 | 132 | 1.6 | 3.2 | 0.00 | 0.00 | 0.00 | 76 | 1012.0 |
| 20260508002703 | 13 | 132 | 3.2 | 4.8 | 0.00 | 0.00 | 0.00 | 76 | 1012.3 |
| 20260508001803 | 13 | 130 | 1.6 | 3.2 | 0.00 | 0.00 | 0.00 | 74 | 1012.5 |
| 20260508000903 | 13 | 134 | 3.2 | 6.4 | 0.00 | 0.00 | 0.00 | 75 | 1012.8 |
| 20260508000007 | 13 | 139 | 4.8 | 9.7 | 0.00 | 0.00 | 0.00 | 75 | 1012.9 |
| 20260507235403 | 13 | 150 | 6.4 | 9.7 | 0.00 | 0.00 | 0.00 | 75 | 1012.9 |
| 20260507234503 | 13 | 157 | 6.4 | 12.9 | 0.00 | 0.00 | 0.00 | 74 | 1013.1 |
| 20260507233816 | 13 | 150 | 8.0 | 12.9 | 0.00 | 0.00 | 0.00 | 73 | 1013.1 |
| 20260507232703 | 13 | 140 | 6.4 | 12.9 | 0.00 | 0.00 | 0.00 | 72 | 1013.3 |
| 20260507231803 | 13 | 147 | 6.4 | 9.7 | 0.00 | 0.00 | 0.00 | 71 | 1013.0 |
| 20260507230903 | 14 | 144 | 6.4 | 9.7 | 0.00 | 0.00 | 0.00 | 71 | 1013.0 |
| 20260507230003 | 14 | 146 | 6.4 | 9.7 | 0.00 | 0.00 | 0.00 | 70 | 1013.0 |
| 20260507225617 | 14 | 153 | 6.4 | 9.7 | 0.00 | 0.00 | 0.00 | 70 | 1012.6 |
| 20260507224503 | 14 | 153 | 6.4 | 9.7 | 0.00 | 0.00 | 0.00 | 69 | 1013.0 |
| 20260507223603 | 15 | 158 | 3.2 | 6.4 | 0.00 | 0.00 | 0.00 | 67 | 1012.8 |
| 20260507222703 | 15 | 157 | 3.2 | 9.7 | 0.00 | 0.00 | 0.00 | 67 | 1012.6 |
| 20260507221803 | 15 | 180 | 4.8 | 9.7 | 0.00 | 0.00 | 0.00 | 65 | 1012.8 |
| 20260507220903 | 15 | 182 | 4.8 | 12.9 | 0.00 | 0.00 | 0.00 | 65 | 1012.7 |
| 20260507220003 | 15 | 179 | 4.8 | 6.4 | 0.00 | 0.00 | 0.00 | 64 | 1012.9 |
| 20260507215617 | 15 | 173 | 3.2 | 6.4 | 0.00 | 0.00 | 0.00 | 63 | 1012.8 |
| 20260507214503 | 15 | 188 | 6.4 | 12.9 | 0.00 | 0.00 | 0.00 | 63 | 1012.9 |
| 20260507213818 | 16 | 198 | 6.4 | 12.9 | 0.00 | 0.00 | 0.00 | 62 | 1012.8 |
| 20260507212917 | 16 | 193 | 6.4 | 12.9 | 0.00 | 0.00 | 0.00 | 62 | 1012.9 |
| 20260507211803 | 16 | 196 | 6.4 | 14.5 | 0.00 | 0.00 | 0.00 | 61 | 1012.6 |
| 20260507210903 | 16 | 195 | 8.0 | 20.9 | 0.00 | 0.00 | 0.00 | 60 | 1012.9 |
| 20260507210217 | 16 | 194 | 8.0 | 20.9 | 0.00 | 0.00 | 0.00 | 60 | 1012.9 |
| 20260507205403 | 16 | 193 | 8.0 | 17.7 | 0.00 | 0.00 | 0.00 | 59 | 1012.6 |
| 20260507204503 | 16 | 198 | 8.0 | 16.1 | 0.00 | 0.00 | 0.00 | 59 | 1012.6 |
| 20260507203603 | 17 | 206 | 9.7 | 17.7 | 0.00 | 0.00 | 0.00 | 58 | 1012.3 |
| 20260507202703 | 17 | 191 | 9.7 | 17.7 | 0.00 | 0.00 | 0.00 | 58 | 1012.4 |
| 20260507201803 | 17 | 185 | 9.7 | 20.9 | 0.00 | 0.00 | 0.00 | 57 | 1012.2 |
| 20260507200903 | 17 | 188 | 8.0 | 17.7 | 0.00 | 0.00 | 0.00 | 56 | 1012.4 |
| 20260507200003 | 17 | 183 | 9.7 | 22.5 | 0.00 | 0.00 | 0.00 | 56 | 1012.1 |
| 20260507195403 | 17 | 182 | 9.7 | 22.5 | 0.00 | 0.00 | 0.00 | 56 | 1011.9 |
| 20260507194717 | 17 | 191 | 9.7 | 17.7 | 0.00 | 0.00 | 0.00 | 56 | 1012.0 |
| 20260507193603 | 18 | 191 | 9.7 | 17.7 | 0.00 | 0.00 | 0.00 | 55 | 1011.7 |
| 20260507192703 | 18 | 194 | 11.3 | 24.1 | 0.00 | 0.00 | 0.00 | 55 | 1011.7 |
| 20260507191803 | 18 | 190 | 8.0 | 16.1 | 0.00 | 0.00 | 0.00 | 55 | 1011.5 |
| 20260507191117 | 18 | 190 | 8.0 | 16.1 | 0.00 | 0.00 | 0.00 | 54 | 1011.4 |
| 20260507190004 | 18 | 200 | 9.7 | 20.9 | 0.00 | 0.00 | 0.00 | 53 | 1011.0 |
| 20260507185403 | 18 | 190 | 8.0 | 20.9 | 0.00 | 0.00 | 0.00 | 53 | 1011.0 |
| 20260507184503 | 18 | 190 | 8.0 | 17.7 | 0.00 | 0.00 | 0.00 | 53 | 1010.9 |
| 20260507183603 | 18 | 194 | 9.7 | 24.1 | 0.00 | 0.00 | 0.00 | 53 | 1010.8 |
| 20260507182703 | 19 | 201 | 9.7 | 17.7 | 0.00 | 0.00 | 0.00 | 53 | 1010.6 |
| 20260507182017 | 19 | 204 | 11.3 | 24.1 | 0.00 | 0.00 | 0.00 | 53 | 1010.5 |
| 20260507180903 | 19 | 193 | 9.7 | 24.1 | 0.00 | 0.00 | 0.00 | 53 | 1010.4 |
| 20260507180003 | 19 | 191 | 8.0 | 16.1 | 0.00 | 0.00 | 0.00 | 53 | 1010.5 |
| 20260507175403 | 19 | 205 | 11.3 | 20.9 | 0.00 | 0.00 | 0.00 | 53 | 1010.3 |
| 20260507174717 | 20 | 207 | 12.9 | 24.1 | 0.00 | 0.00 | 0.00 | 52 | 1010.4 |
| 20260507173603 | 20 | 204 | 14.5 | 25.7 | 0.00 | 0.00 | 0.00 | 52 | 1010.1 |
| 20260507172917 | 20 | 209 | 12.9 | 25.7 | 0.00 | 0.00 | 0.00 | 51 | 1010.0 |
| 20260507171803 | 20 | 205 | 14.5 | 25.7 | 0.00 | 0.00 | 0.00 | 51 | 1009.8 |
| 20260507170903 | 20 | 185 | 11.3 | 25.7 | 0.00 | 0.00 | 0.00 | 51 | 1010.1 |
| 20260507170003 | 20 | 198 | 12.9 | 29.0 | 0.00 | 0.00 | 0.00 | 51 | 1009.8 |
| 20260507165403 | 20 | 194 | 11.3 | 29.0 | 0.00 | 0.00 | 0.00 | 49 | 1009.7 |
| 20260507164503 | 20 | 203 | 14.5 | 27.4 | 0.00 | 0.00 | 0.00 | 49 | 1009.8 |
| 20260507163603 | 20 | 197 | 8.0 | 24.1 | 0.00 | 0.00 | 0.00 | 48 | 1009.6 |
| 20260507162703 | 20 | 173 | 6.4 | 12.9 | 0.00 | 0.00 | 0.00 | 48 | 1009.5 |
| 20260507161803 | 20 | 193 | 8.0 | 14.5 | 0.00 | 0.00 | 0.00 | 49 | 1009.6 |
| 20260507160903 | 20 | 205 | 9.7 | 20.9 | 0.00 | 0.00 | 0.00 | 47 | 1009.6 |
| 20260507160217 | 21 | 199 | 6.4 | 20.9 | 0.00 | 0.00 | 0.00 | 45 | 1009.5 |
| 20260507155403 | 20 | 194 | 6.4 | 17.7 | 0.00 | 0.00 | 0.00 | 45 | 1009.6 |
| 20260507154503 | 21 | 194 | 8.0 | 22.5 | 0.00 | 0.00 | 0.00 | 45 | 1009.6 |
| 20260507153603 | 21 | 207 | 4.8 | 12.9 | 0.00 | 0.00 | 0.00 | 42 | 1009.6 |
| 20260507152703 | 21 | 187 | 3.2 | 9.7 | 0.00 | 0.00 | 0.00 | 41 | 1009.6 |
| 20260507151803 | 20 | 186 | 8.0 | 16.1 | 0.00 | 0.00 | 0.00 | 43 | 1009.7 |
| 20260507151117 | 21 | 180 | 6.4 | 16.1 | 0.00 | 0.00 | 0.00 | 43 | 1009.7 |
| 20260507150003 | 20 | 146 | 8.0 | 14.5 | 0.00 | 0.00 | 0.00 | 44 | 1010.0 |
| 20260507145403 | 20 | 176 | 8.0 | 17.7 | 0.00 | 0.00 | 0.00 | 45 | 1009.9 |
| 20260507144503 | 21 | 171 | 4.8 | 16.1 | 0.00 | 0.00 | 0.00 | 44 | 1010.0 |
| 20260507143817 | 20 | 150 | 3.2 | 9.7 | 0.00 | 0.00 | 0.00 | 46 | 1009.8 |
| 20260507142703 | 20 | 160 | 8.0 | 17.7 | 0.00 | 0.00 | 0.00 | 47 | 1010.2 |
| 20260507141803 | 20 | 173 | 9.7 | 24.1 | 0.00 | 0.00 | 0.00 | 49 | 1010.0 |
| 20260507140903 | 20 | 206 | 9.7 | 20.9 | 0.00 | 0.00 | 0.00 | 47 | 1010.4 |
| 20260507140003 | 20 | 209 | 11.3 | 22.5 | 0.00 | 0.00 | 0.00 | 46 | 1010.4 |
| 20260507135403 | 20 | 197 | 9.7 | 22.5 | 0.00 | 0.00 | 0.00 | 48 | 1010.5 |
| 20260507134503 | 20 | 187 | 9.7 | 22.5 | 0.00 | 0.00 | 0.00 | 48 | 1010.4 |
| 20260507133603 | 20 | 188 | 8.0 | 16.1 | 0.00 | 0.00 | 0.00 | 48 | 1010.5 |
| 20260507132703 | 20 | 205 | 8.0 | 25.7 | 0.00 | 0.00 | 0.00 | 48 | 1010.4 |
| 20260507131803 | 21 | 177 | 6.4 | 12.9 | 0.00 | 0.00 | 0.00 | 46 | 1010.4 |
| 20260507131117 | 20 | 133 | 11.3 | 25.7 | 0.00 | 0.00 | 0.00 | 45 | 1010.5 |
| 20260507130003 | 21 | 157 | 8.0 | 17.7 | 0.00 | 0.00 | 0.00 | 43 | 1010.6 |
| 20260507125403 | 21 | 170 | 8.0 | 20.9 | 0.00 | 0.00 | 0.00 | 45 | 1010.7 |
| 20260507124503 | 20 | 167 | 9.7 | 37.0 | 0.00 | 0.00 | 0.00 | 46 | 1010.8 |
| 20260507123818 | 21 | 183 | 11.3 | 37.0 | 0.00 | 0.00 | 0.00 | 46 | 1010.7 |
| 20260507122705 | 20 | 146 | 12.9 | 24.1 | 0.00 | 0.00 | 0.00 | 47 | 1011.0 |
| 20260507121803 | 20 | 142 | 16.1 | 27.4 | 0.00 | 0.00 | 0.00 | 44 | 1011.0 |
| 20260507120903 | 20 | 141 | 16.1 | 27.4 | 0.00 | 0.00 | 0.00 | 44 | 1011.2 |
| 20260507120003 | 20 | 143 | 14.5 | 29.0 | 0.00 | 0.00 | 0.00 | 47 | 1011.0 |
| 20260507115403 | 20 | 155 | 12.9 | 27.4 | 0.00 | 0.00 | 0.00 | 46 | 1011.0 |
| 20260507114503 | 19 | 147 | 16.1 | 27.4 | 0.00 | 0.00 | 0.00 | 49 | 1011.3 |
| 20260507113603 | 19 | 141 | 11.3 | 22.5 | 0.00 | 0.00 | 0.00 | 51 | 1011.5 |
| 20260507112703 | 18 | 136 | 16.1 | 24.1 | 0.00 | 0.00 | 0.00 | 52 | 1011.5 |
| 20260507111803 | 19 | 146 | 11.3 | 24.1 | 0.00 | 0.00 | 0.00 | 54 | 1011.6 |
| 20260507110903 | 18 | 151 | 11.3 | 22.5 | 0.00 | 0.00 | 0.00 | 55 | 1011.6 |
| 20260507110003 | 18 | 151 | 14.5 | 25.7 | 0.00 | 0.00 | 0.00 | 56 | 1011.7 |
| 20260507105617 | 18 | 149 | 12.9 | 24.1 | 0.00 | 0.00 | 0.00 | 59 | 1011.8 |
| 20260507104503 | 18 | 144 | 12.9 | 22.5 | 0.00 | 0.00 | 0.00 | 56 | 1011.7 |
| 20260507103603 | 19 | 156 | 11.3 | 24.1 | 0.00 | 0.00 | 0.00 | 59 | 1011.9 |
| 20260507102703 | 18 | 154 | 8.0 | 17.7 | 0.00 | 0.00 | 0.00 | 62 | 1011.8 |
| 20260507101803 | 18 | 133 | 8.0 | 20.9 | 0.00 | 0.00 | 0.00 | 59 | 1011.8 |
| 20260507100903 | 17 | 138 | 6.4 | 14.5 | 0.00 | 0.00 | 0.00 | 61 | 1011.9 |
| 20260507100217 | 18 | 121 | 4.8 | 14.5 | 0.00 | 0.00 | 0.00 | 61 | 1012.0 |
| 20260507095403 | 17 | 139 | 6.4 | 16.1 | 0.00 | 0.00 | 0.00 | 60 | 1012.1 |
| 20260507094503 | 18 | 124 | 3.2 | 16.1 | 0.00 | 0.00 | 0.00 | 59 | 1012.1 |
| 20260507093603 | 17 | 146 | 4.8 | 12.9 | 0.00 | 0.00 | 0.00 | 60 | 1012.2 |
| 20260507092916 | 17 | 147 | 3.2 | 11.3 | 0.00 | 0.00 | 0.00 | 60 | 1012.1 |
| 20260507091803 | 16 | 116 | 3.2 | 9.7 | 0.00 | 0.00 | 0.00 | 62 | 1012.3 |
| 20260507091117 | 16 | 112 | 3.2 | 6.4 | 0.00 | 0.00 | 0.00 | 62 | 1012.3 |